Time;durP1;ratioP1;P1;durP2;ratioP2;P2;SDS_P1;SDS_P2;PMS_P1;PMS_P2;Temp;Humidity;BMP_temperature;BMP_pressure;BME280_temperature;BME280_humidity;BME280_pressure;Samples;Min_cycle;Max_cycle;Signal;HPM_P1;HPM_P2
2021/09/03 00:01:48;;;;;;;2.80;2.50;;;12.70;99.90;;;;;;6134980;23;20390;-90
2021/09/03 00:04:34;;;;;;;2.40;2.20;;;12.60;99.90;;;;;;6155706;23;20370;-88
2021/09/03 00:07:20;;;;;;;2.15;2.03;;;12.60;99.90;;;;;;6153638;23;20347;-86
2021/09/03 00:10:06;;;;;;;2.42;2.22;;;12.70;99.90;;;;;;6134069;23;20419;-89
2021/09/03 00:12:52;;;;;;;2.90;2.60;;;12.70;99.90;;;;;;6134841;23;20398;-89
2021/09/03 00:15:38;;;;;;;2.50;2.30;;;12.60;99.90;;;;;;6133565;23;20971;-83
2021/09/03 00:18:24;;;;;;;2.92;2.67;;;12.50;99.90;;;;;;6153339;23;20384;-86
2021/09/03 00:21:10;;;;;;;2.58;2.38;;;12.50;99.90;;;;;;6154306;23;20390;-89
2021/09/03 00:23:56;;;;;;;2.50;2.30;;;12.60;99.90;;;;;;6151917;23;20370;-85
2021/09/03 00:26:42;;;;;;;2.50;2.10;;;12.50;99.90;;;;;;6153936;23;20347;-87
2021/09/03 00:29:28;;;;;;;2.35;2.17;;;12.50;99.90;;;;;;6129505;23;20848;-82
2021/09/03 00:32:14;;;;;;;2.55;2.35;;;12.40;99.90;;;;;;6132029;23;20404;-88
2021/09/03 00:35:00;;;;;;;2.00;1.90;;;12.40;99.90;;;;;;6128246;23;20375;-84
2021/09/03 00:37:46;;;;;;;2.60;1.95;;;12.40;99.90;;;;;;6126009;23;20406;-86
2021/09/03 00:40:32;;;;;;;2.57;1.87;;;12.40;99.90;;;;;;6129866;23;20458;-84
2021/09/03 00:43:18;;;;;;;2.10;1.83;;;12.30;99.90;;;;;;6133655;23;20379;-86
2021/09/03 00:46:04;;;;;;;2.08;1.80;;;12.30;99.90;;;;;;6135575;23;20345;-87
2021/09/03 00:48:50;;;;;;;2.17;2.03;;;12.20;99.90;;;;;;6150890;23;20359;-87
2021/09/03 00:51:36;;;;;;;1.67;1.57;;;12.20;99.90;;;;;;6132927;23;20390;-85
2021/09/03 00:54:22;;;;;;;2.72;1.73;;;12.10;99.90;;;;;;6152919;23;20359;-85
2021/09/03 00:57:09;;;;;;;2.10;1.90;;;12.10;99.90;;;;;;6134538;23;20374;-88
2021/09/03 00:59:55;;;;;;;2.17;1.97;;;12.00;99.90;;;;;;6150593;23;20386;-87
2021/09/03 01:02:41;;;;;;;2.00;1.90;;;11.90;99.90;;;;;;6171358;23;20371;-84
2021/09/03 01:05:27;;;;;;;1.70;1.60;;;11.90;99.90;;;;;;6128795;23;20387;-83
2021/09/03 01:08:14;;;;;;;1.85;1.75;;;11.90;99.90;;;;;;6149289;23;20359;-87
2021/09/03 01:11:00;;;;;;;2.30;2.10;;;11.90;99.90;;;;;;6128203;23;20366;-85
2021/09/03 01:13:46;;;;;;;2.25;2.05;;;11.90;99.90;;;;;;6127047;23;20375;-84
2021/09/03 01:16:32;;;;;;;2.30;2.10;;;11.90;99.90;;;;;;6128497;23;20375;-87
2021/09/03 01:19:18;;;;;;;2.20;2.00;;;11.90;99.90;;;;;;6131970;23;20410;-87
2021/09/03 01:22:04;;;;;;;2.13;1.80;;;11.90;99.90;;;;;;6152651;23;20374;-86
2021/09/03 01:24:50;;;;;;;2.35;2.15;;;11.90;99.90;;;;;;6149903;23;20363;-83
2021/09/03 01:27:36;;;;;;;2.00;1.90;;;11.80;99.90;;;;;;6148819;23;20355;-83
2021/09/03 01:30:22;;;;;;;2.10;2.00;;;11.80;99.90;;;;;;6131683;23;20431;-87
2021/09/03 01:33:08;;;;;;;2.08;1.98;;;11.80;99.90;;;;;;6150762;23;20367;-89
2021/09/03 01:35:54;;;;;;;1.80;1.70;;;11.80;99.90;;;;;;6135500;23;20367;-87
2021/09/03 01:38:42;;;;;;;9.03;2.40;;;11.80;99.90;;;;;;6149612;23;20360;-85
2021/09/03 01:41:27;;;;;;;2.50;2.15;;;11.80;99.90;;;;;;6107327;23;20406;-87
2021/09/03 01:44:13;;;;;;;2.20;2.00;;;11.80;99.90;;;;;;6125277;23;20363;-84
2021/09/03 01:46:59;;;;;;;2.10;2.00;;;11.70;99.90;;;;;;6149799;23;20400;-87
2021/09/03 01:49:45;;;;;;;1.80;1.70;;;11.70;99.90;;;;;;6132898;23;20362;-85
2021/09/03 01:52:31;;;;;;;2.03;1.92;;;11.70;99.90;;;;;;6155013;23;20363;-87
2021/09/03 01:55:17;;;;;;;2.07;1.77;;;11.70;99.90;;;;;;6152564;23;20363;-86
2021/09/03 01:58:03;;;;;;;1.70;1.60;;;11.70;99.90;;;;;;6132677;23;20361;-87
2021/09/03 02:00:49;;;;;;;2.20;2.00;;;11.70;99.90;;;;;;6132902;23;20383;-86
2021/09/03 02:03:35;;;;;;;1.83;1.70;;;11.80;99.90;;;;;;6156336;23;20386;-86
2021/09/03 02:06:21;;;;;;;2.08;1.92;;;11.60;99.90;;;;;;6154466;23;20355;-89
2021/09/03 02:09:07;;;;;;;1.90;1.80;;;11.60;99.90;;;;;;6155217;23;20419;-84
2021/09/03 02:11:53;;;;;;;2.28;2.08;;;11.50;99.90;;;;;;6131982;23;20367;-83
2021/09/03 02:14:42;;;;;;;2.67;2.47;;;11.40;99.90;;;;;;6150754;23;20390;-87
2021/09/03 02:17:28;;;;;;;2.17;2.00;;;11.40;99.90;;;;;;6153084;23;20390;-87
2021/09/03 02:20:14;;;;;;;2.57;2.37;;;11.30;99.90;;;;;;6124820;23;20374;-83
2021/09/03 02:23:00;;;;;;;2.55;2.35;;;11.30;99.90;;;;;;6144751;23;20367;-85
2021/09/03 02:25:46;;;;;;;2.63;2.38;;;11.40;99.90;;;;;;6123852;23;20370;-82
2021/09/03 02:28:32;;;;;;;3.03;2.38;;;11.30;99.90;;;;;;6121880;23;20385;-89
2021/09/03 02:31:18;;;;;;;3.03;2.63;;;11.30;99.90;;;;;;6122864;23;20371;-85
2021/09/03 02:34:04;;;;;;;3.08;2.78;;;11.30;99.90;;;;;;6142589;23;20398;-83
2021/09/03 02:36:50;;;;;;;2.67;2.47;;;11.20;99.90;;;;;;6123666;23;20874;-87
2021/09/03 02:39:36;;;;;;;2.95;2.65;;;11.20;99.90;;;;;;6151121;23;20351;-91
2021/09/03 02:42:22;;;;;;;2.72;2.40;;;11.30;99.90;;;;;;6122799;23;20386;-83
2021/09/03 02:45:08;;;;;;;3.08;2.78;;;11.40;99.90;;;;;;6124456;23;20442;-82
2021/09/03 02:47:54;;;;;;;3.20;2.88;;;11.30;99.90;;;;;;6107942;23;20374;-82
2021/09/03 02:50:41;;;;;;;2.80;2.60;;;11.40;99.90;;;;;;6145028;23;20378;-87
2021/09/03 02:53:26;;;;;;;2.88;2.67;;;11.40;99.90;;;;;;6128618;23;20359;-86
2021/09/03 02:56:12;;;;;;;3.20;2.90;;;11.30;99.90;;;;;;6125590;23;20371;-82
2021/09/03 02:58:58;;;;;;;2.80;2.60;;;11.30;99.90;;;;;;6124245;23;20434;-81
2021/09/03 03:01:44;;;;;;;3.35;2.97;;;11.30;99.90;;;;;;6164098;23;20402;-84
2021/09/03 03:04:30;;;;;;;2.88;2.67;;;11.30;99.90;;;;;;6129876;23;20422;-85
2021/09/03 03:07:16;;;;;;;3.08;2.83;;;11.40;99.90;;;;;;6166635;23;20383;-82
2021/09/03 03:10:04;;;;;;;3.00;2.70;;;11.30;99.90;;;;;;6124561;23;20367;-87
2021/09/03 03:12:53;;;;;;;3.38;3.08;;;11.30;99.90;;;;;;6126997;23;20374;-85
2021/09/03 03:15:39;;;;;;;2.50;2.30;;;11.30;99.90;;;;;;6128067;23;20367;-85
2021/09/03 03:18:25;;;;;;;3.07;2.77;;;11.30;99.90;;;;;;6146970;23;20442;-85
2021/09/03 03:21:11;;;;;;;3.17;2.88;;;11.30;99.90;;;;;;6123410;23;20382;-82
2021/09/03 03:23:57;;;;;;;2.92;2.72;;;11.20;99.90;;;;;;6125223;23;20386;-83
2021/09/03 03:26:43;;;;;;;2.50;2.30;;;11.20;99.90;;;;;;6123523;23;20377;-85
2021/09/03 03:29:29;;;;;;;3.47;2.95;;;11.20;99.90;;;;;;6124067;23;20398;-83
2021/09/03 03:32:15;;;;;;;3.88;3.47;;;11.20;99.90;;;;;;6142784;23;20359;-83
2021/09/03 03:35:01;;;;;;;3.38;3.08;;;11.30;99.90;;;;;;6090739;23;20382;-84
2021/09/03 03:37:47;;;;;;;2.97;2.67;;;11.30;99.90;;;;;;6108672;23;20371;-82
2021/09/03 03:40:33;;;;;;;3.03;2.72;;;11.30;99.90;;;;;;6104847;23;20359;-83
2021/09/03 03:43:19;;;;;;;2.30;2.20;;;11.40;99.90;;;;;;6151339;23;20366;-89
2021/09/03 03:46:05;;;;;;;3.25;2.60;;;11.40;99.90;;;;;;6148582;23;20366;-85
2021/09/03 03:48:51;;;;;;;3.20;2.90;;;11.40;99.90;;;;;;6124716;23;20378;-85
2021/09/03 03:51:37;;;;;;;2.83;2.47;;;11.40;99.90;;;;;;6143496;23;20818;-87
2021/09/03 03:54:23;;;;;;;4.88;3.13;;;11.30;99.90;;;;;;6141060;23;20441;-84
2021/09/03 03:57:09;;;;;;;3.15;2.85;;;11.30;99.90;;;;;;6137540;23;20379;-84
2021/09/03 03:59:55;;;;;;;3.20;3.00;;;11.30;99.90;;;;;;6123641;23;20434;-85
2021/09/03 04:02:41;;;;;;;3.07;2.87;;;11.30;99.90;;;;;;6130457;23;20366;-82
2021/09/03 04:05:26;;;;;;;3.33;2.90;;;11.30;99.90;;;;;;6129141;23;20370;-87
2021/09/03 04:08:12;;;;;;;2.72;2.47;;;11.30;99.90;;;;;;6137461;23;20390;-81
2021/09/03 04:10:58;;;;;;;2.75;2.55;;;11.30;99.90;;;;;;6116242;23;20899;-83
2021/09/03 04:13:44;;;;;;;2.90;2.70;;;11.30;99.90;;;;;;6135582;23;20359;-82
2021/09/03 04:16:30;;;;;;;3.97;3.25;;;11.40;99.90;;;;;;6112700;23;20382;-80
2021/09/03 04:19:16;;;;;;;3.47;3.17;;;11.40;99.90;;;;;;6138658;23;20371;-81
2021/09/03 04:22:02;;;;;;;4.40;3.20;;;11.40;99.90;;;;;;6122318;23;20391;-82
2021/09/03 04:24:48;;;;;;;3.80;3.30;;;11.40;99.90;;;;;;6116109;23;20363;-81
2021/09/03 04:27:35;;;;;;;2.85;2.65;;;11.40;99.90;;;;;;6163440;23;20411;-81
2021/09/03 04:30:21;;;;;;;3.40;3.10;;;11.50;99.90;;;;;;6114190;23;20759;-81
2021/09/03 04:33:07;;;;;;;3.00;2.80;;;11.30;99.90;;;;;;6112296;23;20367;-80
2021/09/03 04:35:53;;;;;;;3.70;3.40;;;11.40;99.90;;;;;;6128827;23;20913;-80
2021/09/03 04:38:39;;;;;;;3.95;3.25;;;11.40;99.90;;;;;;6131416;23;20363;-80
2021/09/03 04:41:25;;;;;;;2.90;2.70;;;11.30;99.90;;;;;;6129604;23;20371;-82
2021/09/03 04:44:11;;;;;;;3.17;2.88;;;11.30;99.90;;;;;;6109149;23;20700;-84
2021/09/03 04:46:57;;;;;;;2.80;2.60;;;11.20;99.90;;;;;;6129566;23;20363;-81
2021/09/03 04:49:43;;;;;;;2.80;2.60;;;11.20;99.90;;;;;;6132415;23;20371;-80
2021/09/03 04:52:28;;;;;;;2.33;2.13;;;11.20;99.90;;;;;;6111698;23;20377;-79
2021/09/03 04:55:14;;;;;;;3.25;2.97;;;11.30;99.90;;;;;;6112482;23;20462;-79
2021/09/03 04:58:00;;;;;;;2.70;2.50;;;11.50;99.90;;;;;;6132073;23;20370;-80
2021/09/03 05:00:46;;;;;;;2.60;2.40;;;11.30;99.90;;;;;;6115192;23;20371;-81
2021/09/03 05:03:32;;;;;;;2.57;2.37;;;11.30;99.90;;;;;;6121577;23;20455;-83
2021/09/03 05:06:18;;;;;;;3.03;2.50;;;11.40;99.90;;;;;;6125607;23;20343;-86
2021/09/03 05:09:04;;;;;;;2.90;2.70;;;11.40;99.90;;;;;;6120382;23;20363;-86
2021/09/03 05:11:50;;;;;;;2.80;2.47;;;11.50;99.90;;;;;;6145995;23;20363;-86
2021/09/03 05:14:36;;;;;;;2.97;2.60;;;11.50;99.90;;;;;;6128890;23;20367;-80
2021/09/03 05:17:22;;;;;;;2.65;2.42;;;11.50;99.90;;;;;;6113087;23;20533;-81
2021/09/03 05:20:09;;;;;;;2.72;2.53;;;11.40;99.90;;;;;;6141704;23;20371;-84
2021/09/03 05:22:56;;;;;;;2.92;2.72;;;11.50;99.90;;;;;;6118151;23;20375;-81
2021/09/03 05:25:42;;;;;;;3.20;2.90;;;11.60;99.90;;;;;;6098682;23;20372;-81
2021/09/03 05:28:28;;;;;;;3.22;2.90;;;11.70;99.90;;;;;;6138596;23;20367;-84
2021/09/03 05:31:14;;;;;;;2.58;2.38;;;11.80;99.90;;;;;;6119379;23;20414;-81
2021/09/03 05:34:00;;;;;;;2.95;2.75;;;11.90;99.90;;;;;;6120096;23;20362;-81
2021/09/03 05:36:46;;;;;;;4.10;3.10;;;12.00;99.90;;;;;;6120569;23;20475;-82
2021/09/03 05:39:32;;;;;;;3.22;2.92;;;12.10;99.90;;;;;;6123457;23;20363;-85
2021/09/03 05:42:18;;;;;;;3.40;3.05;;;12.10;99.90;;;;;;6144861;23;20381;-82
2021/09/03 05:45:05;;;;;;;3.38;3.08;;;12.30;99.90;;;;;;6124915;23;20375;-81
2021/09/03 05:47:52;;;;;;;3.55;2.97;;;12.40;99.90;;;;;;6121832;23;20379;-80
2021/09/03 05:50:37;;;;;;;4.47;4.07;;;12.60;99.90;;;;;;6120797;23;20387;-83
2021/09/03 05:53:23;;;;;;;4.87;3.80;;;12.60;99.90;;;;;;6121003;23;20368;-83
2021/09/03 05:56:09;;;;;;;4.20;3.50;;;12.80;99.90;;;;;;6141915;23;20456;-82
2021/09/03 05:58:56;;;;;;;5.13;4.63;;;12.90;99.90;;;;;;6122400;23;20367;-85
2021/09/03 06:01:41;;;;;;;3.85;3.55;;;12.90;99.90;;;;;;6122315;23;20386;-85
2021/09/03 06:04:27;;;;;;;4.90;4.05;;;13.10;99.90;;;;;;6144810;23;20363;-87
2021/09/03 06:07:13;;;;;;;3.90;3.55;;;13.20;99.90;;;;;;6104412;23;20422;-84
2021/09/03 06:09:59;;;;;;;5.30;3.88;;;13.30;99.90;;;;;;6125417;23;20418;-82
2021/09/03 06:12:45;;;;;;;3.85;3.50;;;13.40;99.90;;;;;;6125011;23;20371;-88
2021/09/03 06:15:31;;;;;;;3.33;3.03;;;13.50;99.90;;;;;;6143903;23;20393;-81
2021/09/03 06:18:17;;;;;;;7.10;3.53;;;13.70;99.90;;;;;;6127529;23;20803;-88
2021/09/03 06:21:03;;;;;;;4.07;3.67;;;13.80;99.90;;;;;;6144913;23;20368;-84
2021/09/03 06:23:49;;;;;;;4.87;3.83;;;13.90;99.90;;;;;;6126593;23;20418;-85
2021/09/03 06:26:35;;;;;;;5.65;3.65;;;14.10;99.90;;;;;;6125731;23;20441;-87
2021/09/03 06:29:42;;;;;;;3.80;3.50;;;14.20;99.90;;;;;;6145877;23;20359;-84
2021/09/03 06:32:28;;;;;;;3.55;3.28;;;14.30;99.90;;;;;;6127040;23;20367;-86
2021/09/03 06:35:14;;;;;;;4.70;3.92;;;14.50;99.90;;;;;;6144145;23;20378;-88
2021/09/03 06:38:00;;;;;;;3.88;3.30;;;14.60;99.90;;;;;;6144179;23;20370;-86
2021/09/03 06:40:46;;;;;;;3.90;3.50;;;14.80;99.90;;;;;;6124770;23;20379;-82
2021/09/03 06:43:32;;;;;;;4.50;3.63;;;14.90;99.90;;;;;;6143000;23;20371;-85
2021/09/03 06:46:18;;;;;;;4.05;3.63;;;15.10;99.90;;;;;;6103654;23;20376;-86
2021/09/03 06:49:04;;;;;;;4.63;4.23;;;15.30;99.90;;;;;;6143425;23;20359;-82
2021/09/03 06:51:50;;;;;;;5.05;4.10;;;15.40;99.90;;;;;;6143814;23;20355;-82
2021/09/03 06:54:36;;;;;;;4.40;4.00;;;15.60;99.90;;;;;;6149408;23;20359;-84
2021/09/03 06:57:22;;;;;;;4.20;3.60;;;15.70;99.90;;;;;;6124642;23;20402;-84
2021/09/03 07:00:09;;;;;;;5.20;4.70;;;16.00;99.90;;;;;;6123903;23;20643;-86
2021/09/03 07:02:55;;;;;;;4.57;4.18;;;16.10;99.90;;;;;;6145247;23;20372;-86
2021/09/03 07:05:41;;;;;;;4.82;4.40;;;16.20;99.90;;;;;;6143904;23;20427;-83
2021/09/03 07:08:27;;;;;;;5.82;4.32;;;16.30;99.90;;;;;;6123214;23;20359;-87
2021/09/03 07:11:13;;;;;;;6.70;4.90;;;16.50;99.90;;;;;;6124255;23;20394;-87
2021/09/03 07:14:00;;;;;;;7.22;5.50;;;16.60;99.90;;;;;;6126561;23;24960;-85
2021/09/03 07:16:46;;;;;;;5.60;4.50;;;16.70;99.90;;;;;;6123510;23;20371;-88
2021/09/03 07:19:34;;;;;;;5.38;4.88;;;16.90;99.90;;;;;;6122177;23;20387;-87
2021/09/03 07:22:20;;;;;;;4.65;3.95;;;17.10;99.90;;;;;;6123299;23;20428;-84
2021/09/03 07:25:06;;;;;;;5.37;4.87;;;17.30;99.90;;;;;;6122094;23;20407;-89
2021/09/03 07:27:52;;;;;;;5.93;4.30;;;17.40;99.90;;;;;;6121171;23;20370;-89
2021/09/03 07:30:38;;;;;;;5.15;4.65;;;17.60;99.90;;;;;;6120773;23;20374;-87
2021/09/03 07:33:24;;;;;;;7.57;5.50;;;17.80;99.90;;;;;;6143721;23;20364;-87
2021/09/03 07:36:11;;;;;;;5.18;4.68;;;17.90;99.90;;;;;;6126491;23;20444;-88
2021/09/03 07:38:57;;;;;;;6.38;4.75;;;18.00;99.90;;;;;;6145627;23;20367;-85
2021/09/03 07:41:43;;;;;;;5.65;4.65;;;18.10;99.90;;;;;;6123487;23;20366;-84
2021/09/03 07:44:29;;;;;;;5.40;4.87;;;18.20;99.90;;;;;;6124937;23;20467;-88
2021/09/03 07:47:15;;;;;;;5.25;4.75;;;18.50;99.90;;;;;;6107412;23;20387;-91
2021/09/03 07:50:01;;;;;;;7.10;5.40;;;18.50;99.90;;;;;;6149366;23;20382;-89
2021/09/03 07:52:47;;;;;;;4.73;4.13;;;18.70;99.90;;;;;;6129266;23;20363;-90
2021/09/03 07:55:34;;;;;;;5.15;4.25;;;19.10;99.90;;;;;;6129986;23;20422;-89
2021/09/03 07:58:20;;;;;;;4.80;4.30;;;19.20;99.90;;;;;;6128755;23;20406;-91
2021/09/03 08:01:06;;;;;;;6.83;4.27;;;19.20;99.90;;;;;;6148046;23;20374;-92
2021/09/03 08:03:52;;;;;;;4.30;3.90;;;19.40;99.90;;;;;;6132132;23;20406;-88
2021/09/03 08:06:38;;;;;;;5.15;4.63;;;19.40;99.90;;;;;;6151910;23;20439;-89
2021/09/03 08:09:24;;;;;;;4.88;4.47;;;19.50;99.90;;;;;;6131377;23;20347;-89
2021/09/03 08:12:09;;;;;;;5.38;4.63;;;19.50;99.90;;;;;;6153061;23;20729;-90
2021/09/03 08:14:56;;;;;;;5.90;3.90;;;19.60;99.90;;;;;;6107532;23;20354;-91
2021/09/03 08:17:42;;;;;;;4.32;3.92;;;19.80;99.90;;;;;;6150597;23;20366;-91
2021/09/03 08:20:27;;;;;;;4.53;4.13;;;19.90;99.90;;;;;;6108570;23;20418;-88
2021/09/03 08:23:13;;;;;;;5.72;4.40;;;20.00;99.90;;;;;;6151825;23;20437;-91
2021/09/03 08:25:59;;;;;;;4.22;3.83;;;20.00;99.90;;;;;;6135094;23;20632;-91
2021/09/03 08:28:45;;;;;;;4.07;3.70;;;20.10;99.90;;;;;;6151482;23;20382;-91
2021/09/03 08:31:31;;;;;;;7.82;4.60;;;20.10;99.90;;;;;;6129409;23;20382;-90
2021/09/03 08:34:17;;;;;;;4.10;3.75;;;20.20;99.90;;;;;;6150752;23;20351;-90
2021/09/03 08:37:03;;;;;;;4.65;3.75;;;20.20;99.90;;;;;;6129880;23;20447;-92
2021/09/03 08:39:49;;;;;;;5.32;4.13;;;20.20;99.90;;;;;;6112201;23;20423;-89
2021/09/03 08:42:36;;;;;;;3.80;3.50;;;20.20;99.90;;;;;;6130539;23;20382;-91
2021/09/03 08:45:22;;;;;;;4.33;3.93;;;20.20;99.90;;;;;;6131680;23;20378;-93
2021/09/03 08:48:09;;;;;;;4.57;4.03;;;20.30;99.90;;;;;;6130802;23;20339;-91
2021/09/03 08:50:56;;;;;;;3.88;3.50;;;20.30;99.90;;;;;;6131355;23;20420;-90
2021/09/03 08:53:42;;;;;;;4.63;3.70;;;20.30;99.90;;;;;;6128970;23;20375;-90
2021/09/03 08:56:28;;;;;;;4.05;3.70;;;20.20;99.90;;;;;;6130132;23;20399;-90
2021/09/03 08:59:14;;;;;;;3.78;3.17;;;20.50;99.90;;;;;;6131869;23;20512;-90
2021/09/03 09:02:12;;;;;;;3.60;3.30;;;20.70;99.90;;;;;;6132510;23;20401;-92
2021/09/03 09:04:59;;;;;;;4.45;3.53;;;20.80;99.90;;;;;;6149357;23;20390;-91
2021/09/03 09:07:44;;;;;;;5.35;3.53;;;20.90;99.90;;;;;;6133453;23;20374;-91
2021/09/03 09:10:31;;;;;;;3.95;3.50;;;21.00;99.90;;;;;;6131984;23;20949;-91
2021/09/03 09:13:18;;;;;;;5.30;3.88;;;21.10;99.90;;;;;;6113605;23;20355;-90
2021/09/03 09:16:12;;;;;;;4.03;3.70;;;21.40;99.90;;;;;;6130297;23;20385;-91
2021/09/03 09:19:00;;;;;;;4.15;3.80;;;21.20;99.90;;;;;;6132337;23;20363;-90
2021/09/03 09:21:48;;;;;;;4.38;3.65;;;21.10;99.90;;;;;;6133292;23;20371;-90
2021/09/03 09:24:36;;;;;;;6.28;4.00;;;21.10;99.90;;;;;;6128715;23;20363;-89
2021/09/03 09:27:24;;;;;;;6.20;4.20;;;21.00;99.90;;;;;;6131247;23;20590;-89
2021/09/03 09:30:24;;;;;;;3.90;3.60;;;21.10;99.90;;;;;;6133204;23;20461;-92
2021/09/03 09:33:18;;;;;;;4.63;3.95;;;21.30;99.90;;;;;;6132646;23;20387;-91
2021/09/03 09:36:04;;;;;;;5.15;3.95;;;21.60;99.90;;;;;;6131714;23;21099;-91
2021/09/03 09:38:50;;;;;;;4.22;3.83;;;21.80;99.90;;;;;;6132022;23;20359;-90
2021/09/03 09:41:36;;;;;;;7.30;4.32;;;22.00;99.90;;;;;;6133391;23;20407;-88
2021/09/03 09:44:30;;;;;;;3.95;3.55;;;22.30;99.90;;;;;;6134360;23;20363;-91
2021/09/03 09:47:19;;;;;;;5.03;3.60;;;22.50;99.90;;;;;;6132648;23;20385;-92
2021/09/03 09:50:24;;;;;;;4.50;3.60;;;22.70;99.90;;;;;;6132066;23;20374;-90
2021/09/03 09:53:11;;;;;;;3.78;3.10;;;22.60;99.90;;;;;;6131316;23;20335;-90
2021/09/03 09:55:58;;;;;;;3.92;3.50;;;22.60;99.90;;;;;;6133115;23;20367;-91
2021/09/03 09:58:44;;;;;;;4.13;3.72;;;22.30;99.90;;;;;;6132476;23;20347;-92
2021/09/03 10:01:30;;;;;;;4.65;3.50;;;22.20;99.90;;;;;;6151306;23;20399;-91
2021/09/03 10:04:20;;;;;;;3.10;2.80;;;22.50;99.90;;;;;;6110456;23;20472;-91
2021/09/03 10:07:06;;;;;;;3.50;3.20;;;22.90;99.90;;;;;;6133751;23;20434;-90
2021/09/03 10:09:52;;;;;;;3.70;3.40;;;23.10;99.90;;;;;;6133049;23;20355;-92
2021/09/03 10:12:38;;;;;;;3.25;2.95;;;23.20;99.90;;;;;;6153791;23;20374;-91
2021/09/03 10:15:24;;;;;;;3.80;3.13;;;23.50;99.90;;;;;;6132757;23;20419;-90
2021/09/03 10:18:10;;;;;;;3.40;2.90;;;23.70;99.90;;;;;;6134446;23;20378;-89
2021/09/03 10:20:56;;;;;;;3.20;2.90;;;23.50;99.90;;;;;;6130378;23;20374;-91
2021/09/03 10:24:01;;;;;;;3.28;2.97;;;23.30;99.90;;;;;;6133466;23;20371;-91
2021/09/03 10:26:48;;;;;;;3.65;3.35;;;23.30;99.90;;;;;;6155931;23;20418;-92
2021/09/03 10:29:44;;;;;;;4.70;2.88;;;23.20;99.90;;;;;;6133516;23;20365;-90
2021/09/03 10:32:36;;;;;;;3.83;3.20;;;23.50;99.90;;;;;;6135218;23;20370;-90
2021/09/03 10:35:22;;;;;;;3.28;2.97;;;23.90;99.90;;;;;;6113621;23;20379;-90
2021/09/03 10:38:29;;;;;;;3.60;2.97;;;24.10;99.90;;;;;;6133101;23;20363;-92
2021/09/03 10:41:47;;;;;;;2.92;2.70;;;24.60;99.90;;;;;;6133418;23;20370;-91
2021/09/03 10:45:07;;;;;;;3.33;3.03;;;25.00;99.90;;;;;;6113728;23;20370;-91
2021/09/03 10:48:02;;;;;;;3.70;2.90;;;25.10;99.90;;;;;;6119746;23;20430;-91
2021/09/03 10:50:54;;;;;;;3.25;2.90;;;25.30;99.90;;;;;;6153447;23;20354;-89
2021/09/03 10:53:43;;;;;;;2.83;2.63;;;25.60;99.90;;;;;;6152929;23;20430;-89
2021/09/03 10:56:34;;;;;;;3.20;2.90;;;25.80;99.90;;;;;;6132952;23;20378;-91
2021/09/03 10:59:20;;;;;;;2.55;2.35;;;25.80;99.90;;;;;;6133852;23;20359;-91
2021/09/03 11:02:11;;;;;;;2.88;2.60;;;26.10;99.90;;;;;;6153714;23;20363;-90
2021/09/03 11:05:11;;;;;;;3.50;2.78;;;26.60;99.90;;;;;;6132359;23;20359;-90
2021/09/03 11:08:05;;;;;;;3.20;2.90;;;26.80;99.90;;;;;;6153606;23;20378;-88
2021/09/03 11:11:17;;;;;;;4.63;2.80;;;26.90;99.90;;;;;;6172929;23;20355;-90
2021/09/03 11:14:10;;;;;;;2.80;2.50;;;26.90;99.90;;;;;;6172488;23;20370;-91
2021/09/03 11:17:02;;;;;;;4.57;2.50;;;26.50;99.90;;;;;;6152535;23;20434;-91
2021/09/03 11:19:50;;;;;;;2.90;2.70;;;26.40;99.90;;;;;;6134179;23;20375;-90
2021/09/03 11:22:38;;;;;;;3.75;2.88;;;26.70;99.90;;;;;;6133216;23;20375;-89
2021/09/03 11:25:25;;;;;;;2.88;2.58;;;26.60;99.90;;;;;;6134436;23;20359;-92
2021/09/03 11:28:14;;;;;;;3.42;2.90;;;26.70;99.90;;;;;;6134074;23;20378;-91
2021/09/03 11:31:07;;;;;;;3.10;2.70;;;26.80;99.90;;;;;;6138896;23;20367;-91
2021/09/03 11:33:54;;;;;;;2.53;2.33;;;26.80;99.90;;;;;;6114689;23;20347;-90
2021/09/03 11:36:47;;;;;;;3.00;2.70;;;27.00;99.90;;;;;;6117053;23;20398;-89
2021/09/03 11:39:39;;;;;;;2.88;2.58;;;27.10;99.90;;;;;;6133861;23;20418;-90
2021/09/03 11:42:32;;;;;;;3.13;2.60;;;27.40;99.90;;;;;;6137670;23;20390;-89
2021/09/03 11:45:45;;;;;;;2.70;2.50;;;27.70;99.90;;;;;;6100385;23;20394;-91
2021/09/03 11:48:38;;;;;;;6.03;3.20;;;27.90;99.90;;;;;;6136722;23;20349;-91
2021/09/03 11:51:33;;;;;;;2.72;2.50;;;27.90;99.90;;;;;;6100413;23;20419;-90
2021/09/03 11:54:24;;;;;;;2.90;2.53;;;27.90;99.90;;;;;;6129350;23;20417;-90
2021/09/03 11:57:54;;;;;;;3.13;2.60;;;28.00;99.90;;;;;;6144657;23;20375;-91
2021/09/03 12:18:01;;;;;;;5.72;2.65;;;28.60;99.90;;;;;;6145447;23;20401;-91
2021/09/03 12:21:04;;;;;;;2.60;2.40;;;28.30;99.90;;;;;;6104626;23;20369;-90
2021/09/03 15:25:37;;;;;;;2.25;2.05;;;28.60;92.80;;;;;;6056897;23;20411;-87
2021/09/03 15:30:20;;;;;;;3.15;2.85;;;28.00;92.90;;;;;;6031515;23;20408;-81
2021/09/03 16:15:36;;;;;;;2.05;1.90;;;25.50;98.10;;;;;;6085199;23;20428;-92
2021/09/03 16:18:22;;;;;;;2.08;1.98;;;25.30;98.20;;;;;;6066020;23;20360;-90
2021/09/03 16:21:08;;;;;;;1.95;1.85;;;25.30;98.70;;;;;;6061946;23;20371;-89
2021/09/03 16:23:54;;;;;;;2.10;2.00;;;25.30;99.10;;;;;;6062648;23;20391;-89
2021/09/03 16:26:40;;;;;;;2.85;2.58;;;25.20;99.50;;;;;;6062463;23;20368;-91
2021/09/03 16:29:26;;;;;;;2.80;2.40;;;25.00;99.90;;;;;;6061095;23;20375;-91
2021/09/03 16:32:12;;;;;;;2.40;2.20;;;24.90;99.90;;;;;;6061519;23;20395;-91
2021/09/03 16:34:59;;;;;;;2.40;2.05;;;24.90;99.90;;;;;;6062914;23;20403;-90
2021/09/03 16:37:45;;;;;;;2.45;2.25;;;24.80;99.90;;;;;;6060940;23;20384;-89
2021/09/03 16:40:31;;;;;;;1.80;1.70;;;24.70;99.90;;;;;;6063076;23;20368;-88
2021/09/03 16:43:17;;;;;;;2.65;2.40;;;24.60;99.90;;;;;;6060516;23;20403;-88
2021/09/03 16:46:03;;;;;;;1.90;1.80;;;24.50;99.90;;;;;;6063596;23;20360;-90
2021/09/03 16:48:49;;;;;;;2.15;1.95;;;24.40;99.90;;;;;;6060337;23;20372;-90
2021/09/03 16:51:35;;;;;;;2.00;1.90;;;24.30;99.90;;;;;;6082045;23;20403;-91
2021/09/03 16:54:21;;;;;;;2.10;1.83;;;24.30;99.90;;;;;;6062603;23;20380;-90
2021/09/03 16:57:08;;;;;;;2.35;2.15;;;24.10;99.90;;;;;;6060999;23;20415;-89
2021/09/03 16:59:54;;;;;;;1.85;1.75;;;24.10;99.90;;;;;;6079722;23;20425;-87
2021/09/03 17:02:40;;;;;;;1.90;1.80;;;24.00;99.90;;;;;;6058228;23;20368;-91
2021/09/03 17:05:26;;;;;;;2.15;1.95;;;23.90;99.90;;;;;;6058823;23;20459;-89
2021/09/03 17:08:11;;;;;;;2.10;2.00;;;23.80;99.90;;;;;;6059696;23;20361;-89
2021/09/03 17:10:57;;;;;;;2.25;2.05;;;23.70;99.90;;;;;;6059450;23;20369;-90
2021/09/03 17:13:43;;;;;;;2.20;2.00;;;23.60;99.90;;;;;;6058209;23;20446;-86
2021/09/03 17:16:29;;;;;;;2.10;2.00;;;23.50;99.90;;;;;;6057435;23;20380;-86
2021/09/03 17:19:16;;;;;;;1.80;1.70;;;23.30;99.90;;;;;;6060022;23;20368;-86
2021/09/03 17:22:02;;;;;;;1.60;1.50;;;23.30;99.90;;;;;;6058958;23;20380;-86
2021/09/03 17:24:48;;;;;;;2.45;1.92;;;23.20;99.90;;;;;;6058120;23;20419;-88
2021/09/03 17:27:33;;;;;;;1.70;1.60;;;23.10;99.90;;;;;;6058129;23;20379;-85
2021/09/03 17:30:19;;;;;;;1.90;1.75;;;23.00;99.90;;;;;;6057239;23;20444;-85
2021/09/03 17:33:05;;;;;;;1.52;1.42;;;22.90;99.90;;;;;;6060146;23;20447;-91
2021/09/03 17:35:51;;;;;;;1.80;1.70;;;22.70;99.90;;;;;;6049498;23;20380;-85
2021/09/03 17:38:37;;;;;;;2.05;1.85;;;22.60;99.90;;;;;;6043892;23;20360;-83
2021/09/03 17:41:23;;;;;;;1.83;1.73;;;22.50;99.90;;;;;;6046919;23;20368;-87
2021/09/03 17:44:10;;;;;;;2.22;1.50;;;22.40;99.90;;;;;;6049769;23;20845;-86
2021/09/03 17:46:56;;;;;;;1.60;1.50;;;22.30;99.90;;;;;;6068280;23;20375;-87
2021/09/03 17:49:42;;;;;;;2.03;1.92;;;22.10;99.90;;;;;;6050138;23;20444;-86
2021/09/03 17:52:28;;;;;;;1.90;1.80;;;21.90;99.90;;;;;;6070096;23;20443;-83
2021/09/03 17:55:15;;;;;;;1.75;1.65;;;21.70;99.90;;;;;;6045355;23;20368;-89
2021/09/03 17:58:01;;;;;;;1.80;1.70;;;21.50;99.90;;;;;;6049750;23;20813;-87
2021/09/03 18:00:47;;;;;;;2.43;1.90;;;21.40;99.90;;;;;;6046304;23;20383;-87
2021/09/03 18:03:33;;;;;;;2.17;1.98;;;21.30;99.90;;;;;;6047438;23;20364;-84
2021/09/03 18:06:19;;;;;;;2.07;1.97;;;21.30;99.90;;;;;;6045996;23;20378;-82
2021/09/03 18:09:05;;;;;;;1.90;1.80;;;21.10;99.90;;;;;;6048236;23;20368;-84
2021/09/03 18:11:51;;;;;;;1.95;1.85;;;21.00;99.90;;;;;;6046416;23;20364;-84
2021/09/03 18:14:38;;;;;;;2.40;2.20;;;20.80;99.90;;;;;;6044776;23;20404;-81
2021/09/03 18:17:24;;;;;;;2.20;2.10;;;20.70;99.90;;;;;;6044247;23;20823;-86
2021/09/03 18:20:10;;;;;;;2.28;2.08;;;20.60;99.90;;;;;;6044248;23;20449;-81
2021/09/03 18:22:56;;;;;;;2.38;2.17;;;20.40;99.90;;;;;;6044874;23;20376;-87
2021/09/03 18:25:42;;;;;;;2.10;1.90;;;20.30;99.90;;;;;;6042314;23;20367;-82
2021/09/03 18:28:28;;;;;;;2.63;2.38;;;20.20;99.90;;;;;;6044032;23;20448;-82
2021/09/03 18:31:14;;;;;;;2.58;2.33;;;20.10;99.90;;;;;;6045444;23;20399;-84
2021/09/03 18:34:00;;;;;;;2.22;1.90;;;20.00;99.90;;;;;;6049189;23;20778;-82
2021/09/03 18:36:46;;;;;;;2.55;2.35;;;19.80;99.90;;;;;;6045124;23;20396;-82